sensor_id;sensor_type;location;lat;lon;timestamp;pressure;altitude;pressure_sealevel;temperature;humidity
11448;BME280;43755;49.736;8.734;2023-04-28T00:00:26;97672.84;;;9.69;100.00
11448;BME280;43755;49.736;8.734;2023-04-28T00:02:28;97671.38;;;9.82;100.00
11448;BME280;43755;49.736;8.734;2023-04-28T00:04:29;97665.47;;;9.96;100.00
11448;BME280;43755;49.736;8.734;2023-04-28T00:06:31;97658.84;;;10.25;100.00
11448;BME280;43755;49.736;8.734;2023-04-28T00:08:32;97665.00;;;10.44;95.28
11448;BME280;43755;49.736;8.734;2023-04-28T00:10:33;97657.16;;;10.79;88.01
11448;BME280;43755;49.736;8.734;2023-04-28T00:12:36;97657.63;;;10.87;89.28
11448;BME280;43755;49.736;8.734;2023-04-28T00:14:38;97659.13;;;11.09;84.46
11448;BME280;43755;49.736;8.734;2023-04-28T00:16:39;97656.13;;;11.17;80.41
11448;BME280;43755;49.736;8.734;2023-04-28T00:18:41;97653.69;;;11.47;75.39
11448;BME280;43755;49.736;8.734;2023-04-28T00:20:42;97645.25;;;11.56;74.29
11448;BME280;43755;49.736;8.734;2023-04-28T00:22:44;97649.31;;;11.63;75.33
11448;BME280;43755;49.736;8.734;2023-04-28T00:24:45;97650.09;;;11.82;73.26
11448;BME280;43755;49.736;8.734;2023-04-28T00:26:47;97648.66;;;11.93;71.13
11448;BME280;43755;49.736;8.734;2023-04-28T00:28:49;97655.16;;;12.03;71.38
11448;BME280;43755;49.736;8.734;2023-04-28T00:30:51;97651.56;;;12.04;71.58
11448;BME280;43755;49.736;8.734;2023-04-28T00:32:52;97651.50;;;12.05;73.21
11448;BME280;43755;49.736;8.734;2023-04-28T00:34:56;97645.59;;;12.00;76.53
11448;BME280;43755;49.736;8.734;2023-04-28T00:36:57;97647.09;;;11.88;80.89
11448;BME280;43755;49.736;8.734;2023-04-28T00:38:59;97645.66;;;11.83;82.13
11448;BME280;43755;49.736;8.734;2023-04-28T00:41:00;97638.78;;;11.79;82.96
11448;BME280;43755;49.736;8.734;2023-04-28T00:43:02;97630.22;;;11.74;84.22
11448;BME280;43755;49.736;8.734;2023-04-28T00:45:06;97617.81;;;11.74;84.40
11448;BME280;43755;49.736;8.734;2023-04-28T00:47:07;97618.28;;;11.65;87.91
11448;BME280;43755;49.736;8.734;2023-04-28T00:49:09;97607.16;;;11.59;88.59
11448;BME280;43755;49.736;8.734;2023-04-28T00:51:11;97604.91;;;11.51;90.01
11448;BME280;43755;49.736;8.734;2023-04-28T00:53:13;97601.56;;;11.47;89.91
11448;BME280;43755;49.736;8.734;2023-04-28T00:55:15;97600.72;;;11.47;90.36
11448;BME280;43755;49.736;8.734;2023-04-28T00:57:19;97594.09;;;11.38;92.30
11448;BME280;43755;49.736;8.734;2023-04-28T00:59:20;97599.00;;;11.46;88.96
11448;BME280;43755;49.736;8.734;2023-04-28T01:01:23;97599.16;;;11.60;80.53
11448;BME280;43755;49.736;8.734;2023-04-28T01:03:25;97595.81;;;11.72;79.76
11448;BME280;43755;49.736;8.734;2023-04-28T01:05:27;97591.06;;;11.79;78.60
11448;BME280;43755;49.736;8.734;2023-04-28T01:07:29;97584.50;;;11.86;81.03
11448;BME280;43755;49.736;8.734;2023-04-28T01:09:30;97580.84;;;11.88;79.73
11448;BME280;43755;49.736;8.734;2023-04-28T01:11:32;97572.38;;;11.98;79.67
11448;BME280;43755;49.736;8.734;2023-04-28T01:13:33;97575.41;;;12.07;77.66
11448;BME280;43755;49.736;8.734;2023-04-28T01:15:35;97564.00;;;12.05;80.01
11448;BME280;43755;49.736;8.734;2023-04-28T01:17:37;97561.69;;;12.15;74.34
11448;BME280;43755;49.736;8.734;2023-04-28T01:19:39;97548.94;;;12.21;76.60
11448;BME280;43755;49.736;8.734;2023-04-28T01:21:41;97557.59;;;12.25;75.18
11448;BME280;43755;49.736;8.734;2023-04-28T01:23:45;97550.97;;;12.32;73.51
11448;BME280;43755;49.736;8.734;2023-04-28T01:25:46;97546.53;;;12.32;74.09
11448;BME280;43755;49.736;8.734;2023-04-28T01:27:48;97550.81;;;12.35;72.70
11448;BME280;43755;49.736;8.734;2023-04-28T01:29:49;97554.22;;;12.37;71.42
11448;BME280;43755;49.736;8.734;2023-04-28T01:31:51;97548.69;;;12.42;72.04
11448;BME280;43755;49.736;8.734;2023-04-28T01:33:52;97554.50;;;12.48;70.14
11448;BME280;43755;49.736;8.734;2023-04-28T01:35:56;97544.81;;;12.47;71.11
11448;BME280;43755;49.736;8.734;2023-04-28T01:37:58;97551.06;;;12.46;72.73
11448;BME280;43755;49.736;8.734;2023-04-28T01:40:01;97544.81;;;12.47;72.14
11448;BME280;43755;49.736;8.734;2023-04-28T01:42:03;97545.91;;;12.59;72.86
11448;BME280;43755;49.736;8.734;2023-04-28T01:44:05;97548.91;;;12.53;72.59
11448;BME280;43755;49.736;8.734;2023-04-28T01:46:06;97538.88;;;12.58;71.92
11448;BME280;43755;49.736;8.734;2023-04-28T01:48:08;97547.63;;;12.60;70.66
11448;BME280;43755;49.736;8.734;2023-04-28T01:50:09;97539.81;;;12.57;73.65
11448;BME280;43755;49.736;8.734;2023-04-28T01:52:11;97537.69;;;12.63;69.50
11448;BME280;43755;49.736;8.734;2023-04-28T01:54:12;97532.94;;;12.68;70.25
11448;BME280;43755;49.736;8.734;2023-04-28T01:56:15;97539.97;;;12.69;71.19
11448;BME280;43755;49.736;8.734;2023-04-28T01:58:16;97545.34;;;12.68;73.71
11448;BME280;43755;49.736;8.734;2023-04-28T02:00:18;97544.63;;;12.66;70.40
11448;BME280;43755;49.736;8.734;2023-04-28T02:02:20;97549.72;;;12.69;72.32
11448;BME280;43755;49.736;8.734;2023-04-28T02:04:21;97545.72;;;12.62;72.86
11448;BME280;43755;49.736;8.734;2023-04-28T02:06:23;97549.31;;;12.61;76.24
11448;BME280;43755;49.736;8.734;2023-04-28T02:08:24;97543.75;;;12.65;74.42
11448;BME280;43755;49.736;8.734;2023-04-28T02:10:25;97544.63;;;12.66;73.88
11448;BME280;43755;49.736;8.734;2023-04-28T02:12:28;97539.47;;;12.63;75.75
11448;BME280;43755;49.736;8.734;2023-04-28T02:14:30;97527.41;;;12.57;77.71
11448;BME280;43755;49.736;8.734;2023-04-28T02:16:32;97528.28;;;12.58;78.79
11448;BME280;43755;49.736;8.734;2023-04-28T02:18:33;97525.47;;;12.45;80.49
11448;BME280;43755;49.736;8.734;2023-04-28T02:20:35;97537.47;;;12.37;84.44
11448;BME280;43755;49.736;8.734;2023-04-28T02:22:37;97537.47;;;12.37;84.83
11448;BME280;43755;49.736;8.734;2023-04-28T02:24:38;97536.13;;;12.29;89.37
11448;BME280;43755;49.736;8.734;2023-04-28T02:26:39;97543.22;;;12.13;89.72
11448;BME280;43755;49.736;8.734;2023-04-28T02:28:42;97552.78;;;12.16;89.36
11448;BME280;43755;49.736;8.734;2023-04-28T02:30:43;97545.53;;;12.04;91.94
11448;BME280;43755;49.736;8.734;2023-04-28T02:32:45;97547.91;;;11.93;93.77
11448;BME280;43755;49.736;8.734;2023-04-28T02:34:51;97549.56;;;11.95;91.53
11448;BME280;43755;49.736;8.734;2023-04-28T02:36:53;97557.91;;;12.03;91.13
11448;BME280;43755;49.736;8.734;2023-04-28T02:38:54;97556.13;;;12.04;91.25
11448;BME280;43755;49.736;8.734;2023-04-28T02:40:57;97547.91;;;12.08;92.16
11448;BME280;43755;49.736;8.734;2023-04-28T02:42:58;97548.09;;;12.05;88.96
11448;BME280;43755;49.736;8.734;2023-04-28T02:45:02;97545.78;;;12.15;87.68
11448;BME280;43755;49.736;8.734;2023-04-28T02:47:03;97549.88;;;12.20;87.13
11448;BME280;43755;49.736;8.734;2023-04-28T02:49:05;97546.38;;;12.20;88.36
11448;BME280;43755;49.736;8.734;2023-04-28T02:51:06;97550.75;;;12.21;87.74
11448;BME280;43755;49.736;8.734;2023-04-28T02:53:08;97544.94;;;12.30;85.08
11448;BME280;43755;49.736;8.734;2023-04-28T02:55:09;97536.16;;;12.44;85.64
11448;BME280;43755;49.736;8.734;2023-04-28T02:57:11;97528.28;;;12.58;82.39
11448;BME280;43755;49.736;8.734;2023-04-28T02:59:12;97537.94;;;12.59;82.64
11448;BME280;43755;49.736;8.734;2023-04-28T03:01:15;97527.91;;;12.64;82.17
11448;BME280;43755;49.736;8.734;2023-04-28T03:03:16;97525.34;;;12.62;84.68
11448;BME280;43755;49.736;8.734;2023-04-28T03:05:18;97518.59;;;12.57;86.82
11448;BME280;43755;49.736;8.734;2023-04-28T03:07:19;97517.81;;;12.55;84.96
11448;BME280;43755;49.736;8.734;2023-04-28T03:09:20;97524.25;;;12.51;84.75
11448;BME280;43755;49.736;8.734;2023-04-28T03:11:22;97521.88;;;12.46;87.33
11448;BME280;43755;49.736;8.734;2023-04-28T03:13:23;97513.38;;;12.55;90.00
11448;BME280;43755;49.736;8.734;2023-04-28T03:15:25;97512.47;;;12.41;90.98
11448;BME280;43755;49.736;8.734;2023-04-28T03:17:28;97504.56;;;12.25;92.23
11448;BME280;43755;49.736;8.734;2023-04-28T03:19:29;97513.03;;;12.16;93.63
11448;BME280;43755;49.736;8.734;2023-04-28T03:21:32;97505.84;;;12.02;99.13
11448;BME280;43755;49.736;8.734;2023-04-28T03:23:33;97504.84;;;11.89;97.36
11448;BME280;43755;49.736;8.734;2023-04-28T03:25:35;97512.53;;;11.94;100.00
11448;BME280;43755;49.736;8.734;2023-04-28T03:27:36;97510.38;;;11.84;100.00
11448;BME280;43755;49.736;8.734;2023-04-28T03:29:38;97505.81;;;11.71;100.00
11448;BME280;43755;49.736;8.734;2023-04-28T03:31:39;97506.41;;;11.60;100.00
11448;BME280;43755;49.736;8.734;2023-04-28T03:33:42;97495.91;;;11.59;100.00
11448;BME280;43755;49.736;8.734;2023-04-28T03:35:46;97484.09;;;11.48;100.00
11448;BME280;43755;49.736;8.734;2023-04-28T03:37:47;97488.34;;;11.51;100.00
11448;BME280;43755;49.736;8.734;2023-04-28T03:39:48;97485.56;;;11.54;100.00
11448;BME280;43755;49.736;8.734;2023-04-28T03:41:50;97491.69;;;11.55;100.00
11448;BME280;43755;49.736;8.734;2023-04-28T03:43:51;97489.28;;;11.50;100.00
11448;BME280;43755;49.736;8.734;2023-04-28T03:45:53;97492.28;;;11.44;100.00
11448;BME280;43755;49.736;8.734;2023-04-28T03:47:54;97486.78;;;11.31;100.00
11448;BME280;43755;49.736;8.734;2023-04-28T03:49:57;97491.94;;;11.34;100.00
11448;BME280;43755;49.736;8.734;2023-04-28T03:51:59;97487.88;;;11.27;100.00
11448;BME280;43755;49.736;8.734;2023-04-28T03:54:00;97490.59;;;11.26;100.00
11448;BME280;43755;49.736;8.734;2023-04-28T03:56:02;97482.44;;;11.30;100.00
11448;BME280;43755;49.736;8.734;2023-04-28T03:58:03;97475.19;;;11.34;100.00
11448;BME280;43755;49.736;8.734;2023-04-28T04:00:06;97469.69;;;11.37;100.00
11448;BME280;43755;49.736;8.734;2023-04-28T04:02:07;97466.91;;;11.40;100.00
11448;BME280;43755;49.736;8.734;2023-04-28T04:04:08;97465.03;;;11.42;100.00
11448;BME280;43755;49.736;8.734;2023-04-28T04:06:11;97458.97;;;11.40;100.00
11448;BME280;43755;49.736;8.734;2023-04-28T04:08:12;97462.38;;;11.42;100.00
11448;BME280;43755;49.736;8.734;2023-04-28T04:10:14;97457.16;;;11.40;100.00
11448;BME280;43755;49.736;8.734;2023-04-28T04:12:16;97446.38;;;11.43;100.00
11448;BME280;43755;49.736;8.734;2023-04-28T04:14:17;97444.00;;;11.39;100.00
11448;BME280;43755;49.736;8.734;2023-04-28T04:16:19;97442.28;;;11.38;100.00
11448;BME280;43755;49.736;8.734;2023-04-28T04:18:21;97441.78;;;11.47;100.00
11448;BME280;43755;49.736;8.734;2023-04-28T04:20:23;97441.78;;;11.47;100.00
11448;BME280;43755;49.736;8.734;2023-04-28T04:22:25;97441.34;;;11.55;100.00
11448;BME280;43755;49.736;8.734;2023-04-28T04:24:27;97436.06;;;11.55;100.00
11448;BME280;43755;49.736;8.734;2023-04-28T04:26:28;97432.72;;;11.51;100.00
11448;BME280;43755;49.736;8.734;2023-04-28T04:28:30;97434.59;;;11.49;100.00
11448;BME280;43755;49.736;8.734;2023-04-28T04:30:31;97425.66;;;11.52;100.00
11448;BME280;43755;49.736;8.734;2023-04-28T04:32:32;97424.44;;;11.57;100.00
11448;BME280;43755;49.736;8.734;2023-04-28T04:34:34;97432.25;;;11.60;100.00
11448;BME280;43755;49.736;8.734;2023-04-28T04:36:35;97420.34;;;11.67;100.00
11448;BME280;43755;49.736;8.734;2023-04-28T04:38:38;97420.59;;;11.78;100.00
11448;BME280;43755;49.736;8.734;2023-04-28T04:40:39;97425.41;;;11.87;100.00
11448;BME280;43755;49.736;8.734;2023-04-28T04:42:41;97419.06;;;11.90;100.00
11448;BME280;43755;49.736;8.734;2023-04-28T04:44:42;97426.66;;;11.96;100.00
11448;BME280;43755;49.736;8.734;2023-04-28T04:46:44;97423.19;;;11.96;100.00
11448;BME280;43755;49.736;8.734;2023-04-28T04:48:46;97430.94;;;11.99;100.00
11448;BME280;43755;49.736;8.734;2023-04-28T04:50:47;97422.41;;;11.94;100.00
11448;BME280;43755;49.736;8.734;2023-04-28T04:52:49;97425.06;;;11.94;100.00
11448;BME280;43755;49.736;8.734;2023-04-28T04:54:52;97419.56;;;11.97;100.00
11448;BME280;43755;49.736;8.734;2023-04-28T04:56:55;97425.66;;;11.99;100.00
11448;BME280;43755;49.736;8.734;2023-04-28T04:58:56;97414.97;;;12.00;100.00
11448;BME280;43755;49.736;8.734;2023-04-28T05:00:58;97419.28;;;12.17;100.00
11448;BME280;43755;49.736;8.734;2023-04-28T05:02:59;97423.44;;;12.21;100.00
11448;BME280;43755;49.736;8.734;2023-04-28T05:05:03;97420.63;;;12.24;100.00
11448;BME280;43755;49.736;8.734;2023-04-28T05:07:05;97424.81;;;12.28;100.00
11448;BME280;43755;49.736;8.734;2023-04-28T05:09:06;97433.25;;;12.35;100.00
11448;BME280;43755;49.736;8.734;2023-04-28T05:11:09;97421.25;;;12.43;100.00
11448;BME280;43755;49.736;8.734;2023-04-28T05:13:10;97425.53;;;12.46;100.00
11448;BME280;43755;49.736;8.734;2023-04-28T05:15:12;97426.81;;;12.39;100.00
11448;BME280;43755;49.736;8.734;2023-04-28T05:17:13;97429.75;;;12.34;100.00
11448;BME280;43755;49.736;8.734;2023-04-28T05:19:15;97429.69;;;12.20;100.00
11448;BME280;43755;49.736;8.734;2023-04-28T05:21:16;97426.81;;;12.09;100.00
11448;BME280;43755;49.736;8.734;2023-04-28T05:23:18;97434.97;;;12.06;100.00
11448;BME280;43755;49.736;8.734;2023-04-28T05:25:19;97432.06;;;11.95;100.00
11448;BME280;43755;49.736;8.734;2023-04-28T05:27:22;97431.84;;;11.83;100.00
11448;BME280;43755;49.736;8.734;2023-04-28T05:29:23;97436.00;;;11.72;100.00
11448;BME280;43755;49.736;8.734;2023-04-28T05:31:25;97439.06;;;11.64;100.00
11448;BME280;43755;49.736;8.734;2023-04-28T05:33:26;97437.88;;;11.54;100.00
11448;BME280;43755;49.736;8.734;2023-04-28T05:35:28;97432.63;;;11.37;100.00
11448;BME280;43755;49.736;8.734;2023-04-28T05:37:30;97424.44;;;11.41;100.00
11448;BME280;43755;49.736;8.734;2023-04-28T05:39:32;97416.31;;;11.44;100.00
11448;BME280;43755;49.736;8.734;2023-04-28T05:41:33;97420.09;;;11.40;100.00
11448;BME280;43755;49.736;8.734;2023-04-28T05:43:36;97425.13;;;11.45;100.00
11448;BME280;43755;49.736;8.734;2023-04-28T05:45:38;97421.69;;;11.43;100.00
11448;BME280;43755;49.736;8.734;2023-04-28T05:47:39;97418.97;;;11.44;100.00
11448;BME280;43755;49.736;8.734;2023-04-28T05:49:41;97422.31;;;11.48;100.00
11448;BME280;43755;49.736;8.734;2023-04-28T05:51:42;97423.19;;;11.48;100.00
11448;BME280;43755;49.736;8.734;2023-04-28T05:53:44;97416.75;;;11.53;100.00
11448;BME280;43755;49.736;8.734;2023-04-28T05:55:47;97426.50;;;11.52;100.00
11448;BME280;43755;49.736;8.734;2023-04-28T05:57:49;97434.03;;;11.60;100.00
11448;BME280;43755;49.736;8.734;2023-04-28T05:59:52;97434.69;;;11.63;100.00
11448;BME280;43755;49.736;8.734;2023-04-28T06:01:53;97445.28;;;11.63;100.00
11448;BME280;43755;49.736;8.734;2023-04-28T06:03:54;97445.16;;;11.66;100.00
11448;BME280;43755;49.736;8.734;2023-04-28T06:05:57;97435.97;;;11.56;100.00
11448;BME280;43755;49.736;8.734;2023-04-28T06:07:58;97444.69;;;11.58;100.00
11448;BME280;43755;49.736;8.734;2023-04-28T06:10:00;97439.47;;;11.57;100.00
11448;BME280;43755;49.736;8.734;2023-04-28T06:12:01;97448.13;;;11.60;100.00
11448;BME280;43755;49.736;8.734;2023-04-28T06:14:03;97449.41;;;11.53;100.00
11448;BME280;43755;49.736;8.734;2023-04-28T06:16:07;97453.41;;;11.44;100.00
11448;BME280;43755;49.736;8.734;2023-04-28T06:18:08;97449.28;;;11.39;100.00
11448;BME280;43755;49.736;8.734;2023-04-28T06:20:11;97447.84;;;11.33;100.00
11448;BME280;43755;49.736;8.734;2023-04-28T06:22:13;97446.22;;;11.31;100.00
11448;BME280;43755;49.736;8.734;2023-04-28T06:24:14;97441.34;;;11.23;100.00
11448;BME280;43755;49.736;8.734;2023-04-28T06:26:16;97439.69;;;11.21;100.00
11448;BME280;43755;49.736;8.734;2023-04-28T06:28:17;97437.56;;;11.12;100.00
11448;BME280;43755;49.736;8.734;2023-04-28T06:30:20;97442.00;;;11.11;100.00
11448;BME280;43755;49.736;8.734;2023-04-28T06:32:23;97450.81;;;11.12;100.00
11448;BME280;43755;49.736;8.734;2023-04-28T06:34:25;97448.91;;;11.14;100.00
11448;BME280;43755;49.736;8.734;2023-04-28T06:36:28;97450.00;;;11.09;100.00
11448;BME280;43755;49.736;8.734;2023-04-28T06:38:29;97456.25;;;11.08;100.00
11448;BME280;43755;49.736;8.734;2023-04-28T06:40:30;97445.31;;;10.99;100.00
11448;BME280;43755;49.736;8.734;2023-04-28T06:42:32;97445.97;;;11.02;100.00
11448;BME280;43755;49.736;8.734;2023-04-28T06:44:33;97449.09;;;11.11;100.00
11448;BME280;43755;49.736;8.734;2023-04-28T06:46:35;97450.88;;;11.10;100.00
11448;BME280;43755;49.736;8.734;2023-04-28T06:48:38;97452.06;;;11.04;100.00
11448;BME280;43755;49.736;8.734;2023-04-28T06:50:40;97444.91;;;11.06;100.00
11448;BME280;43755;49.736;8.734;2023-04-28T06:52:41;97456.34;;;11.07;100.00
11448;BME280;43755;49.736;8.734;2023-04-28T06:54:42;97457.66;;;10.98;100.00
11448;BME280;43755;49.736;8.734;2023-04-28T06:56:44;97449.97;;;10.94;100.00
11448;BME280;43755;49.736;8.734;2023-04-28T06:58:45;97451.84;;;10.92;100.00
11448;BME280;43755;49.736;8.734;2023-04-28T07:00:47;97452.72;;;10.92;100.00
11448;BME280;43755;49.736;8.734;2023-04-28T07:02:48;97453.25;;;10.99;100.00
11448;BME280;43755;49.736;8.734;2023-04-28T07:04:51;97448.63;;;11.02;100.00
11448;BME280;43755;49.736;8.734;2023-04-28T07:06:52;97443.34;;;11.02;100.00
11448;BME280;43755;49.736;8.734;2023-04-28T07:08:54;97447.94;;;10.99;100.00
11448;BME280;43755;49.736;8.734;2023-04-28T07:10:55;97434.78;;;10.97;100.00
11448;BME280;43755;49.736;8.734;2023-04-28T07:12:56;97440.88;;;10.99;100.00
11448;BME280;43755;49.736;8.734;2023-04-28T07:14:58;97440.53;;;11.05;100.00
11448;BME280;43755;49.736;8.734;2023-04-28T07:16:59;97441.47;;;11.04;100.00
11448;BME280;43755;49.736;8.734;2023-04-28T07:19:01;97429.41;;;10.99;100.00
11448;BME280;43755;49.736;8.734;2023-04-28T07:21:04;97436.84;;;11.08;100.00
11448;BME280;43755;49.736;8.734;2023-04-28T07:23:05;97434.31;;;11.06;100.00
11448;BME280;43755;49.736;8.734;2023-04-28T07:25:07;97443.25;;;11.04;100.00
11448;BME280;43755;49.736;8.734;2023-04-28T07:27:08;97444.19;;;11.03;100.00
11448;BME280;43755;49.736;8.734;2023-04-28T07:29:10;97439.69;;;11.05;100.00
11448;BME280;43755;49.736;8.734;2023-04-28T07:31:12;97435.78;;;11.12;100.00
11448;BME280;43755;49.736;8.734;2023-04-28T07:33:14;97437.38;;;11.15;100.00
11448;BME280;43755;49.736;8.734;2023-04-28T07:35:15;97439.44;;;11.25;100.00
11448;BME280;43755;49.736;8.734;2023-04-28T07:37:18;97431.94;;;11.33;100.00
11448;BME280;43755;49.736;8.734;2023-04-28T07:39:20;97433.00;;;11.31;100.00
11448;BME280;43755;49.736;8.734;2023-04-28T07:41:21;97430.22;;;11.32;100.00
11448;BME280;43755;49.736;8.734;2023-04-28T07:43:22;97433.00;;;11.31;100.00
11448;BME280;43755;49.736;8.734;2023-04-28T07:45:24;97429.03;;;11.38;100.00
11448;BME280;43755;49.736;8.734;2023-04-28T07:47:26;97417.38;;;11.42;100.00
11448;BME280;43755;49.736;8.734;2023-04-28T07:49:28;97421.00;;;11.55;100.00
11448;BME280;43755;49.736;8.734;2023-04-28T07:51:30;97413.25;;;11.68;100.00
11448;BME280;43755;49.736;8.734;2023-04-28T07:53:33;97409.72;;;11.67;100.00
11448;BME280;43755;49.736;8.734;2023-04-28T07:55:35;97408.13;;;11.65;100.00
11448;BME280;43755;49.736;8.734;2023-04-28T07:57:36;97405.75;;;11.76;100.00
11448;BME280;43755;49.736;8.734;2023-04-28T07:59:38;97411.38;;;11.85;100.00
11448;BME280;43755;49.736;8.734;2023-04-28T08:01:39;97411.38;;;11.85;100.00
11448;BME280;43755;49.736;8.734;2023-04-28T08:03:42;97412.66;;;11.94;100.00
11448;BME280;43755;49.736;8.734;2023-04-28T08:05:43;97410.59;;;11.99;100.00
11448;BME280;43755;49.736;8.734;2023-04-28T08:07:45;97404.78;;;11.93;100.00
11448;BME280;43755;49.736;8.734;2023-04-28T08:09:47;97416.09;;;11.80;100.00
11448;BME280;43755;49.736;8.734;2023-04-28T08:11:49;97421.22;;;11.83;100.00
11448;BME280;43755;49.736;8.734;2023-04-28T08:13:50;97419.91;;;11.90;100.00
11448;BME280;43755;49.736;8.734;2023-04-28T08:15:52;97431.91;;;11.82;100.00
11448;BME280;43755;49.736;8.734;2023-04-28T08:17:55;97423.44;;;11.75;100.00
11448;BME280;43755;49.736;8.734;2023-04-28T08:19:57;97423.75;;;11.69;100.00
11448;BME280;43755;49.736;8.734;2023-04-28T08:21:58;97429.84;;;11.71;100.00
11448;BME280;43755;49.736;8.734;2023-04-28T08:24:04;97433.97;;;11.77;100.00
11448;BME280;43755;49.736;8.734;2023-04-28T08:26:08;97437.47;;;11.77;100.00
11448;BME280;43755;49.736;8.734;2023-04-28T08:28:10;97439.88;;;11.82;100.00
11448;BME280;43755;49.736;8.734;2023-04-28T08:30:11;97427.97;;;11.89;100.00
11448;BME280;43755;49.736;8.734;2023-04-28T08:32:13;97428.22;;;12.00;100.00
11448;BME280;43755;49.736;8.734;2023-04-28T08:34:14;97418.19;;;12.05;100.00
11448;BME280;43755;49.736;8.734;2023-04-28T08:36:15;97428.84;;;12.19;100.00
11448;BME280;43755;49.736;8.734;2023-04-28T08:38:17;97416.84;;;12.28;100.00
11448;BME280;43755;49.736;8.734;2023-04-28T08:40:18;97418.84;;;12.24;100.00
11448;BME280;43755;49.736;8.734;2023-04-28T08:42:21;97431.38;;;12.37;100.00
11448;BME280;43755;49.736;8.734;2023-04-28T08:44:23;97438.28;;;12.39;100.00
11448;BME280;43755;49.736;8.734;2023-04-28T08:46:26;97439.22;;;12.38;100.00
11448;BME280;43755;49.736;8.734;2023-04-28T08:48:29;97422.22;;;12.42;100.00
11448;BME280;43755;49.736;8.734;2023-04-28T08:50:34;97435.34;;;12.44;100.00
11448;BME280;43755;49.736;8.734;2023-04-28T08:52:36;97435.56;;;12.55;100.00
11448;BME280;43755;49.736;8.734;2023-04-28T08:54:38;97443.78;;;12.36;100.00
11448;BME280;43755;49.736;8.734;2023-04-28T08:56:41;97445.59;;;12.36;100.00
11448;BME280;43755;49.736;8.734;2023-04-28T08:58:45;97443.81;;;12.50;100.00
11448;BME280;43755;49.736;8.734;2023-04-28T09:00:47;97430.22;;;12.85;100.00
11448;BME280;43755;49.736;8.734;2023-04-28T09:02:48;97440.66;;;13.02;100.00
11448;BME280;43755;49.736;8.734;2023-04-28T09:04:50;97440.56;;;13.03;100.00
11448;BME280;43755;49.736;8.734;2023-04-28T09:06:51;97439.47;;;13.07;100.00
11448;BME280;43755;49.736;8.734;2023-04-28T09:08:53;97453.13;;;13.01;100.00
11448;BME280;43755;49.736;8.734;2023-04-28T09:11:05;97449.22;;;13.07;100.00
11448;BME280;43755;49.736;8.734;2023-04-28T09:13:07;97447.41;;;12.93;100.00
11448;BME280;43755;49.736;8.734;2023-04-28T09:15:10;97446.75;;;12.90;100.00
11448;BME280;43755;49.736;8.734;2023-04-28T09:17:13;97452.13;;;13.02;100.00
11448;BME280;43755;49.736;8.734;2023-04-28T09:19:15;97449.97;;;12.95;100.00
11448;BME280;43755;49.736;8.734;2023-04-28T09:21:17;97450.34;;;13.03;100.00
11448;BME280;43755;49.736;8.734;2023-04-28T09:23:20;97448.84;;;12.99;100.00
11448;BME280;43755;49.736;8.734;2023-04-28T09:25:22;97452.50;;;12.82;100.00
11448;BME280;43755;49.736;8.734;2023-04-28T09:27:26;97453.38;;;12.83;100.00
11448;BME280;43755;49.736;8.734;2023-04-28T09:29:28;97456.19;;;12.80;100.00
11448;BME280;43755;49.736;8.734;2023-04-28T09:31:31;97446.50;;;12.64;100.00
11448;BME280;43755;49.736;8.734;2023-04-28T09:33:55;97460.53;;;12.66;100.00
11448;BME280;43755;49.736;8.734;2023-04-28T09:35:57;97460.16;;;12.72;100.00
11448;BME280;43755;49.736;8.734;2023-04-28T09:37:58;97459.50;;;12.69;100.00
11448;BME280;43755;49.736;8.734;2023-04-28T09:40:04;97459.50;;;12.69;100.00
11448;BME280;43755;49.736;8.734;2023-04-28T09:42:05;97459.22;;;12.73;100.00
11448;BME280;43755;49.736;8.734;2023-04-28T09:44:11;97460.75;;;12.78;100.00
11448;BME280;43755;49.736;8.734;2023-04-28T09:46:27;97462.06;;;12.70;100.00
11448;BME280;43755;49.736;8.734;2023-04-28T09:48:32;97458.06;;;12.63;100.00
11448;BME280;43755;49.736;8.734;2023-04-28T09:50:38;97453.91;;;12.73;100.00
11448;BME280;43755;49.736;8.734;2023-04-28T09:52:41;97466.28;;;12.89;100.00
11448;BME280;43755;49.736;8.734;2023-04-28T09:54:44;97458.19;;;12.90;100.00
11448;BME280;43755;49.736;8.734;2023-04-28T09:56:46;97461.75;;;13.05;100.00
11448;BME280;43755;49.736;8.734;2023-04-28T09:58:49;97467.81;;;13.07;100.00
11448;BME280;43755;49.736;8.734;2023-04-28T10:00:54;97458.13;;;13.06;100.00
11448;BME280;43755;49.736;8.734;2023-04-28T10:02:56;97463.09;;;13.12;100.00
11448;BME280;43755;49.736;8.734;2023-04-28T10:05:00;97458.72;;;13.11;100.00
11448;BME280;43755;49.736;8.734;2023-04-28T10:07:02;97457.59;;;13.15;100.00
11448;BME280;43755;49.736;8.734;2023-04-28T10:09:04;97460.25;;;13.29;100.00
11448;BME280;43755;49.736;8.734;2023-04-28T10:11:07;97472.59;;;13.30;100.00
11448;BME280;43755;49.736;8.734;2023-04-28T10:13:09;97468.41;;;13.26;100.00
11448;BME280;43755;49.736;8.734;2023-04-28T10:15:11;97462.44;;;13.37;100.00
11448;BME280;43755;49.736;8.734;2023-04-28T10:17:13;97468.78;;;13.34;100.00
11448;BME280;43755;49.736;8.734;2023-04-28T10:19:15;97463.28;;;13.23;100.00
11448;BME280;43755;49.736;8.734;2023-04-28T10:21:18;97455.72;;;13.17;100.00
11448;BME280;43755;49.736;8.734;2023-04-28T10:23:51;97456.75;;;13.29;100.00
11448;BME280;43755;49.736;8.734;2023-04-28T10:25:58;97461.78;;;13.33;100.00
11448;BME280;43755;49.736;8.734;2023-04-28T10:28:03;97466.44;;;13.30;100.00
11448;BME280;43755;49.736;8.734;2023-04-28T10:30:10;97456.38;;;13.35;100.00
11448;BME280;43755;49.736;8.734;2023-04-28T10:32:16;97460.63;;;13.37;100.00
11448;BME280;43755;49.736;8.734;2023-04-28T10:34:21;97460.06;;;13.32;100.00
11448;BME280;43755;49.736;8.734;2023-04-28T10:36:46;97459.69;;;13.52;100.00
11448;BME280;43755;49.736;8.734;2023-04-28T10:39:07;97459.78;;;13.37;100.00
11448;BME280;43755;49.736;8.734;2023-04-28T10:41:30;97450.19;;;13.48;100.00